sensor_id;sensor_type;location;lat;lon;timestamp;pressure;altitude;pressure_sealevel;temperature;humidity
83116;BME280;72996;40.206;44.498;2024-01-25T00:01:42;89438.63;;;3.38;52.01
83116;BME280;72996;40.206;44.498;2024-01-25T00:04:08;89437.69;;;3.35;51.79
83116;BME280;72996;40.206;44.498;2024-01-25T00:06:34;89429.84;;;3.35;51.93
83116;BME280;72996;40.206;44.498;2024-01-25T00:09:00;89437.69;;;3.35;52.39
83116;BME280;72996;40.206;44.498;2024-01-25T00:11:26;89426.25;;;3.38;52.37
83116;BME280;72996;40.206;44.498;2024-01-25T00:13:51;89417.13;;;3.26;52.78
83116;BME280;72996;40.206;44.498;2024-01-25T00:16:17;89404.34;;;3.23;52.67
83116;BME280;72996;40.206;44.498;2024-01-25T00:18:43;89429.34;;;3.37;52.02
83116;BME280;72996;40.206;44.498;2024-01-25T00:21:08;89416.19;;;3.24;52.27
83116;BME280;72996;40.206;44.498;2024-01-25T00:23:34;89404.97;;;3.29;51.53
83116;BME280;72996;40.206;44.498;2024-01-25T00:26:00;89413.78;;;3.26;51.97
83116;BME280;72996;40.206;44.498;2024-01-25T00:28:26;89410.13;;;3.34;52.20
83116;BME280;72996;40.206;44.498;2024-01-25T00:30:53;89415.53;;;3.42;51.74
83116;BME280;72996;40.206;44.498;2024-01-25T00:33:19;89416.72;;;3.41;51.69
83116;BME280;72996;40.206;44.498;2024-01-25T00:35:45;89395.50;;;3.26;51.83
83116;BME280;72996;40.206;44.498;2024-01-25T00:38:11;89404.22;;;3.34;51.16
83116;BME280;72996;40.206;44.498;2024-01-25T00:40:37;89408.44;;;3.37;52.61
83116;BME280;72996;40.206;44.498;2024-01-25T00:43:03;89419.78;;;3.45;52.58
83116;BME280;72996;40.206;44.498;2024-01-25T00:45:29;89421.75;;;3.39;52.17
83116;BME280;72996;40.206;44.498;2024-01-25T00:47:54;89409.22;;;3.32;51.80
83116;BME280;72996;40.206;44.498;2024-01-25T00:50:20;89418.56;;;3.46;51.72
83116;BME280;72996;40.206;44.498;2024-01-25T00:52:49;89377.53;;;3.17;51.93
83116;BME280;72996;40.206;44.498;2024-01-25T00:55:15;89427.81;;;3.47;51.72
83116;BME280;72996;40.206;44.498;2024-01-25T00:57:41;89406.88;;;3.28;51.96
83116;BME280;72996;40.206;44.498;2024-01-25T01:00:08;89424.13;;;3.37;51.74
83116;BME280;72996;40.206;44.498;2024-01-25T01:02:36;89424.94;;;3.26;52.12
83116;BME280;72996;40.206;44.498;2024-01-25T01:05:02;89430.88;;;3.27;51.48
83116;BME280;72996;40.206;44.498;2024-01-25T01:07:28;89423.72;;;3.33;51.39
83116;BME280;72996;40.206;44.498;2024-01-25T01:09:53;89425.00;;;3.45;51.99
83116;BME280;72996;40.206;44.498;2024-01-25T01:12:19;89395.50;;;3.26;51.58
83116;BME280;72996;40.206;44.498;2024-01-25T01:14:45;89410.28;;;3.42;50.74
83116;BME280;72996;40.206;44.498;2024-01-25T01:17:10;89416.84;;;3.54;51.32
83116;BME280;72996;40.206;44.498;2024-01-25T01:19:36;89410.47;;;3.49;51.10
83116;BME280;72996;40.206;44.498;2024-01-25T01:22:02;89419.88;;;3.58;50.88
83116;BME280;72996;40.206;44.498;2024-01-25T01:24:27;89422.22;;;3.61;51.49
83116;BME280;72996;40.206;44.498;2024-01-25T01:26:53;89386.25;;;3.25;51.12
83116;BME280;72996;40.206;44.498;2024-01-25T01:29:18;89418.72;;;3.29;51.28
83116;BME280;72996;40.206;44.498;2024-01-25T01:31:44;89417.44;;;3.17;51.45
83116;BME280;72996;40.206;44.498;2024-01-25T01:34:10;89434.69;;;3.26;52.17
83116;BME280;72996;40.206;44.498;2024-01-25T01:36:38;89427.06;;;3.28;51.04
83116;BME280;72996;40.206;44.498;2024-01-25T01:39:03;89420.97;;;3.20;51.91
83116;BME280;72996;40.206;44.498;2024-01-25T01:41:29;89411.06;;;3.13;51.90
83116;BME280;72996;40.206;44.498;2024-01-25T01:43:55;89418.78;;;3.24;51.51
83116;BME280;72996;40.206;44.498;2024-01-25T01:46:36;89397.66;;;3.22;50.62
83116;BME280;72996;40.206;44.498;2024-01-25T01:49:13;89415.88;;;3.33;51.16
83116;BME280;72996;40.206;44.498;2024-01-25T01:51:42;89431.09;;;3.29;51.42
83116;BME280;72996;40.206;44.498;2024-01-25T01:54:09;89429.72;;;3.22;51.16
83116;BME280;72996;40.206;44.498;2024-01-25T01:56:36;89413.63;;;2.89;51.31
83116;BME280;72996;40.206;44.498;2024-01-25T01:59:04;89412.31;;;2.77;51.85
83116;BME280;72996;40.206;44.498;2024-01-25T02:01:30;89415.59;;;2.83;50.96
83116;BME280;72996;40.206;44.498;2024-01-25T02:03:56;89393.81;;;2.75;51.88
83116;BME280;72996;40.206;44.498;2024-01-25T02:06:23;89410.81;;;2.87;51.93
83116;BME280;72996;40.206;44.498;2024-01-25T02:08:49;89397.84;;;2.76;51.11
83116;BME280;72996;40.206;44.498;2024-01-25T02:11:17;89401.94;;;2.66;51.61
83116;BME280;72996;40.206;44.498;2024-01-25T02:13:43;89413.72;;;2.78;51.77
83116;BME280;72996;40.206;44.498;2024-01-25T02:16:08;89409.53;;;2.69;51.44
83116;BME280;72996;40.206;44.498;2024-01-25T02:18:34;89412.00;;;2.86;52.27
83116;BME280;72996;40.206;44.498;2024-01-25T02:21:00;89385.84;;;2.91;52.12
83116;BME280;72996;40.206;44.498;2024-01-25T02:23:26;89405.59;;;3.11;51.88
83116;BME280;72996;40.206;44.498;2024-01-25T02:25:52;89391.78;;;3.16;51.57
83116;BME280;72996;40.206;44.498;2024-01-25T02:28:18;89391.31;;;3.17;51.45
83116;BME280;72996;40.206;44.498;2024-01-25T02:30:44;89380.50;;;3.08;50.96
83116;BME280;72996;40.206;44.498;2024-01-25T02:33:09;89383.47;;;3.17;51.33
83116;BME280;72996;40.206;44.498;2024-01-25T02:35:35;89366.44;;;3.11;51.40
83116;BME280;72996;40.206;44.498;2024-01-25T02:38:00;89390.28;;;3.26;50.68
83116;BME280;72996;40.206;44.498;2024-01-25T02:40:26;89312.91;;;2.75;50.69
83116;BME280;72996;40.206;44.498;2024-01-25T02:42:52;89385.13;;;3.20;50.73
83116;BME280;72996;40.206;44.498;2024-01-25T02:45:17;89388.66;;;3.23;50.56
83116;BME280;72996;40.206;44.498;2024-01-25T02:47:43;89388.69;;;3.17;50.68
83116;BME280;72996;40.206;44.498;2024-01-25T02:50:09;89380.25;;;3.06;51.19
83116;BME280;72996;40.206;44.498;2024-01-25T02:52:35;89371.00;;;3.05;51.35
83116;BME280;72996;40.206;44.498;2024-01-25T02:55:00;89367.97;;;3.01;51.09
83116;BME280;72996;40.206;44.498;2024-01-25T02:57:26;89374.56;;;3.07;50.87
83116;BME280;72996;40.206;44.498;2024-01-25T02:59:52;89363.78;;;2.92;50.79
83116;BME280;72996;40.206;44.498;2024-01-25T03:02:18;89381.41;;;3.10;51.73
83116;BME280;72996;40.206;44.498;2024-01-25T03:04:45;89301.28;;;2.76;51.39
83116;BME280;72996;40.206;44.498;2024-01-25T03:07:11;89378.31;;;3.36;50.34
83116;BME280;72996;40.206;44.498;2024-01-25T03:09:36;89373.97;;;3.20;51.27
83116;BME280;72996;40.206;44.498;2024-01-25T03:12:02;89383.19;;;3.21;51.19
83116;BME280;72996;40.206;44.498;2024-01-25T03:14:28;89364.47;;;3.17;51.32
83116;BME280;72996;40.206;44.498;2024-01-25T03:16:53;89359.50;;;3.19;51.39
83116;BME280;72996;40.206;44.498;2024-01-25T03:19:19;89374.16;;;3.22;50.55
83116;BME280;72996;40.206;44.498;2024-01-25T03:21:45;89369.81;;;3.30;50.22
83116;BME280;72996;40.206;44.498;2024-01-25T03:24:10;89364.63;;;3.24;50.51
83116;BME280;72996;40.206;44.498;2024-01-25T03:26:36;89366.06;;;3.25;50.44
83116;BME280;72996;40.206;44.498;2024-01-25T03:29:02;89369.44;;;3.20;50.32
83116;BME280;72996;40.206;44.498;2024-01-25T03:31:28;89388.53;;;3.34;51.16
83116;BME280;72996;40.206;44.498;2024-01-25T03:33:53;89358.94;;;3.26;50.97
83116;BME280;72996;40.206;44.498;2024-01-25T03:36:19;89367.09;;;3.41;50.32
83116;BME280;72996;40.206;44.498;2024-01-25T03:38:44;89358.81;;;3.37;50.02
83116;BME280;72996;40.206;44.498;2024-01-25T03:41:10;89381.22;;;3.51;50.20
83116;BME280;72996;40.206;44.498;2024-01-25T03:43:36;89359.31;;;3.35;50.71
83116;BME280;72996;40.206;44.498;2024-01-25T03:46:02;89371.75;;;3.48;50.18
83116;BME280;72996;40.206;44.498;2024-01-25T03:48:30;89374.72;;;3.39;50.47
83116;BME280;72996;40.206;44.498;2024-01-25T03:50:56;89359.31;;;3.35;50.70
83116;BME280;72996;40.206;44.498;2024-01-25T03:53:22;89359.19;;;3.46;50.69
83116;BME280;72996;40.206;44.498;2024-01-25T03:55:48;89356.06;;;3.48;50.69
83116;BME280;72996;40.206;44.498;2024-01-25T03:58:16;89376.59;;;3.62;50.61
83116;BME280;72996;40.206;44.498;2024-01-25T04:00:43;89373.06;;;3.60;50.67
83116;BME280;72996;40.206;44.498;2024-01-25T04:03:10;89372.56;;;3.61;50.14
83116;BME280;72996;40.206;44.498;2024-01-25T04:05:36;89374.47;;;3.61;50.10
83116;BME280;72996;40.206;44.498;2024-01-25T04:08:02;89309.59;;;3.22;50.81
83116;BME280;72996;40.206;44.498;2024-01-25T04:10:28;89360.75;;;3.55;50.07
83116;BME280;72996;40.206;44.498;2024-01-25T04:12:54;89386.91;;;3.55;50.44
83116;BME280;72996;40.206;44.498;2024-01-25T04:15:19;89386.03;;;3.47;50.72
83116;BME280;72996;40.206;44.498;2024-01-25T04:17:45;89378.31;;;3.36;50.27
83116;BME280;72996;40.206;44.498;2024-01-25T04:20:11;89380.16;;;3.17;50.76
83116;BME280;72996;40.206;44.498;2024-01-25T04:22:37;89380.50;;;3.08;50.33
83116;BME280;72996;40.206;44.498;2024-01-25T04:25:03;89398.94;;;3.15;51.16
83116;BME280;72996;40.206;44.498;2024-01-25T04:27:30;89402.47;;;3.18;51.47
83116;BME280;72996;40.206;44.498;2024-01-25T04:29:55;89362.03;;;3.00;51.11
83116;BME280;72996;40.206;44.498;2024-01-25T04:32:21;89373.97;;;3.20;50.93
83116;BME280;72996;40.206;44.498;2024-01-25T04:34:46;89383.53;;;3.36;50.98
83116;BME280;72996;40.206;44.498;2024-01-25T04:37:13;89399.31;;;3.49;50.45
83116;BME280;72996;40.206;44.498;2024-01-25T04:39:39;89379.38;;;3.46;50.31
83116;BME280;72996;40.206;44.498;2024-01-25T04:42:05;89381.34;;;3.40;49.91
83116;BME280;72996;40.206;44.498;2024-01-25T04:44:31;89395.19;;;3.35;50.43
83116;BME280;72996;40.206;44.498;2024-01-25T04:46:56;89396.06;;;3.19;50.93
83116;BME280;72996;40.206;44.498;2024-01-25T04:49:22;89389.91;;;3.16;50.85
83116;BME280;72996;40.206;44.498;2024-01-25T04:51:47;89382.56;;;3.15;50.60
83116;BME280;72996;40.206;44.498;2024-01-25T04:54:13;89377.66;;;3.06;50.74
83116;BME280;72996;40.206;44.498;2024-01-25T04:56:41;89378.03;;;3.15;51.03
83116;BME280;72996;40.206;44.498;2024-01-25T04:59:07;89367.84;;;3.12;50.63
83116;BME280;72996;40.206;44.498;2024-01-25T05:01:33;89359.03;;;3.15;50.40
83116;BME280;72996;40.206;44.498;2024-01-25T05:03:59;89373.63;;;3.29;50.39
83116;BME280;72996;40.206;44.498;2024-01-25T05:06:25;89368.63;;;3.31;50.90
83116;BME280;72996;40.206;44.498;2024-01-25T05:08:51;89377.97;;;3.45;49.82
83116;BME280;72996;40.206;44.498;2024-01-25T05:11:16;89371.47;;;3.33;50.83
83116;BME280;72996;40.206;44.498;2024-01-25T05:13:42;89391.03;;;3.45;50.36
83116;BME280;72996;40.206;44.498;2024-01-25T05:16:08;89376.06;;;3.45;50.09
83116;BME280;72996;40.206;44.498;2024-01-25T05:18:34;89365.53;;;3.32;50.74
83116;BME280;72996;40.206;44.498;2024-01-25T05:21:00;89365.25;;;3.36;50.68
83116;BME280;72996;40.206;44.498;2024-01-25T05:23:25;89364.56;;;3.54;50.58
83116;BME280;72996;40.206;44.498;2024-01-25T05:25:51;89383.94;;;3.64;49.81
83116;BME280;72996;40.206;44.498;2024-01-25T05:28:17;89382.31;;;3.61;50.89
83116;BME280;72996;40.206;44.498;2024-01-25T05:30:42;89372.06;;;3.63;50.21
83116;BME280;72996;40.206;44.498;2024-01-25T05:33:08;89371.66;;;3.59;49.93
83116;BME280;72996;40.206;44.498;2024-01-25T05:35:33;89370.22;;;3.58;50.35
83116;BME280;72996;40.206;44.498;2024-01-25T05:38:00;89360.44;;;3.40;50.87
83116;BME280;72996;40.206;44.498;2024-01-25T05:40:26;89380.25;;;3.54;51.01
83116;BME280;72996;40.206;44.498;2024-01-25T05:42:52;89373.59;;;3.53;49.91
83116;BME280;72996;40.206;44.498;2024-01-25T05:45:17;89372.41;;;3.54;49.86
83116;BME280;72996;40.206;44.498;2024-01-25T05:47:45;89381.09;;;3.62;49.79
83116;BME280;72996;40.206;44.498;2024-01-25T05:50:11;89385.69;;;3.56;50.58
83116;BME280;72996;40.206;44.498;2024-01-25T05:52:37;89376.44;;;3.55;50.73
83116;BME280;72996;40.206;44.498;2024-01-25T05:55:04;89384.91;;;3.61;49.28
83116;BME280;72996;40.206;44.498;2024-01-25T05:57:30;89384.63;;;3.64;50.08
83116;BME280;72996;40.206;44.498;2024-01-25T05:59:56;89358.59;;;3.59;50.01
83116;BME280;72996;40.206;44.498;2024-01-25T06:02:21;89380.56;;;3.69;49.81
83116;BME280;72996;40.206;44.498;2024-01-25T06:04:47;89390.66;;;3.78;49.93
83116;BME280;72996;40.206;44.498;2024-01-25T06:07:13;89382.03;;;3.83;49.27
83116;BME280;72996;40.206;44.498;2024-01-25T06:09:38;89356.28;;;3.74;48.83
83116;BME280;72996;40.206;44.498;2024-01-25T06:12:04;89382.69;;;3.89;49.00
83116;BME280;72996;40.206;44.498;2024-01-25T06:14:30;89371.25;;;3.92;48.50
83116;BME280;72996;40.206;44.498;2024-01-25T06:16:56;89371.97;;;3.92;48.40
83116;BME280;72996;40.206;44.498;2024-01-25T06:19:22;89380.00;;;4.13;48.53
83116;BME280;72996;40.206;44.498;2024-01-25T06:21:47;89375.19;;;4.17;47.45
83116;BME280;72996;40.206;44.498;2024-01-25T06:24:13;89379.53;;;3.96;48.39
83116;BME280;72996;40.206;44.498;2024-01-25T06:26:39;89356.97;;;3.93;48.62
83116;BME280;72996;40.206;44.498;2024-01-25T06:29:04;89377.25;;;4.24;48.34
83116;BME280;72996;40.206;44.498;2024-01-25T06:31:30;89377.88;;;4.30;48.22
83116;BME280;72996;40.206;44.498;2024-01-25T06:33:56;89375.63;;;4.21;47.33
83116;BME280;72996;40.206;44.498;2024-01-25T06:36:22;89381.56;;;4.03;48.33
83116;BME280;72996;40.206;44.498;2024-01-25T06:38:48;89370.81;;;3.88;48.61
83116;BME280;72996;40.206;44.498;2024-01-25T06:41:14;89384.25;;;4.16;48.20
83116;BME280;72996;40.206;44.498;2024-01-25T06:43:40;89388.47;;;4.19;48.02
83116;BME280;72996;40.206;44.498;2024-01-25T06:46:06;89387.34;;;4.33;48.35
83116;BME280;72996;40.206;44.498;2024-01-25T06:48:33;89388.19;;;4.41;48.62
83116;BME280;72996;40.206;44.498;2024-01-25T06:50:58;89367.28;;;4.22;48.09
83116;BME280;72996;40.206;44.498;2024-01-25T06:53:24;89382.91;;;4.28;48.54
83116;BME280;72996;40.206;44.498;2024-01-25T06:55:50;89373.66;;;4.27;48.99
83116;BME280;72996;40.206;44.498;2024-01-25T06:58:15;89326.78;;;4.10;48.62
83116;BME280;72996;40.206;44.498;2024-01-25T07:00:41;89352.56;;;4.38;48.04
83116;BME280;72996;40.206;44.498;2024-01-25T07:03:08;89378.66;;;4.43;48.41
83116;BME280;72996;40.206;44.498;2024-01-25T07:05:34;89326.13;;;4.23;47.62
83116;BME280;72996;40.206;44.498;2024-01-25T07:08:01;89377.69;;;4.59;47.30
83116;BME280;72996;40.206;44.498;2024-01-25T07:10:27;89378.44;;;4.73;47.83
83116;BME280;72996;40.206;44.498;2024-01-25T07:12:53;89378.47;;;4.86;47.33
83116;BME280;72996;40.206;44.498;2024-01-25T07:15:19;89384.19;;;5.16;47.42
83116;BME280;72996;40.206;44.498;2024-01-25T07:17:45;89386.41;;;5.25;47.63
83116;BME280;72996;40.206;44.498;2024-01-25T07:20:11;89376.22;;;5.21;46.85
83116;BME280;72996;40.206;44.498;2024-01-25T07:22:37;89382.78;;;5.41;46.74
83116;BME280;72996;40.206;44.498;2024-01-25T07:25:03;89364.63;;;5.17;45.54
83116;BME280;72996;40.206;44.498;2024-01-25T07:27:29;89371.75;;;5.03;46.51
83116;BME280;72996;40.206;44.498;2024-01-25T07:29:55;89385.75;;;5.06;47.72
83116;BME280;72996;40.206;44.498;2024-01-25T07:32:20;89368.22;;;5.01;47.33
83116;BME280;72996;40.206;44.498;2024-01-25T07:34:46;89361.00;;;5.07;47.20
83116;BME280;72996;40.206;44.498;2024-01-25T07:37:13;89371.28;;;5.31;46.56
83116;BME280;72996;40.206;44.498;2024-01-25T07:39:38;89348.28;;;4.98;46.46
83116;BME280;72996;40.206;44.498;2024-01-25T07:42:04;89381.59;;;5.29;47.98
83116;BME280;72996;40.206;44.498;2024-01-25T07:44:30;89381.38;;;5.40;47.38
83116;BME280;72996;40.206;44.498;2024-01-25T07:46:55;89367.69;;;5.34;47.45
83116;BME280;72996;40.206;44.498;2024-01-25T07:49:21;89375.53;;;5.47;47.59
83116;BME280;72996;40.206;44.498;2024-01-25T07:51:47;89365.66;;;5.40;46.82
83116;BME280;72996;40.206;44.498;2024-01-25T07:54:13;89311.72;;;5.05;46.93
83116;BME280;72996;40.206;44.498;2024-01-25T07:56:39;89371.31;;;5.44;46.91
83116;BME280;72996;40.206;44.498;2024-01-25T07:59:05;89370.06;;;5.32;47.67
83116;BME280;72996;40.206;44.498;2024-01-25T08:01:31;89377.66;;;5.48;47.94
83116;BME280;72996;40.206;44.498;2024-01-25T08:03:56;89388.34;;;5.63;47.36
83116;BME280;72996;40.206;44.498;2024-01-25T08:06:22;89383.41;;;5.60;48.03
83116;BME280;72996;40.206;44.498;2024-01-25T08:08:48;89380.50;;;5.76;46.91
83116;BME280;72996;40.206;44.498;2024-01-25T08:11:14;89368.28;;;5.66;46.18
83116;BME280;72996;40.206;44.498;2024-01-25T08:13:44;89363.22;;;5.68;46.42
83116;BME280;72996;40.206;44.498;2024-01-25T08:16:10;89367.88;;;5.75;46.45
83116;BME280;72996;40.206;44.498;2024-01-25T08:18:39;89376.16;;;5.92;46.60
83116;BME280;72996;40.206;44.498;2024-01-25T08:21:05;89347.53;;;5.81;46.03
83116;BME280;72996;40.206;44.498;2024-01-25T08:23:31;89376.56;;;5.96;46.00
83116;BME280;72996;40.206;44.498;2024-01-25T08:25:57;89367.47;;;5.97;46.42
83116;BME280;72996;40.206;44.498;2024-01-25T08:28:23;89351.34;;;5.67;45.84
83116;BME280;72996;40.206;44.498;2024-01-25T08:30:48;89369.28;;;5.76;47.09
83116;BME280;72996;40.206;44.498;2024-01-25T08:33:14;89373.03;;;5.80;46.78
83116;BME280;72996;40.206;44.498;2024-01-25T08:35:40;89362.63;;;5.88;46.40
83116;BME280;72996;40.206;44.498;2024-01-25T08:38:06;89347.38;;;6.12;46.21
83116;BME280;72996;40.206;44.498;2024-01-25T08:40:32;89343.22;;;6.17;45.32
83116;BME280;72996;40.206;44.498;2024-01-25T08:42:58;89337.78;;;6.02;46.19
83116;BME280;72996;40.206;44.498;2024-01-25T08:45:24;89334.97;;;6.00;45.83
83116;BME280;72996;40.206;44.498;2024-01-25T08:47:49;89336.16;;;6.12;45.63
83116;BME280;72996;40.206;44.498;2024-01-25T08:50:16;89309.94;;;5.99;45.83
83116;BME280;72996;40.206;44.498;2024-01-25T08:52:42;89323.94;;;6.14;46.40
83116;BME280;72996;40.206;44.498;2024-01-25T08:55:08;89325.25;;;6.21;46.01
83116;BME280;72996;40.206;44.498;2024-01-25T08:57:35;89316.72;;;6.28;45.85
83116;BME280;72996;40.206;44.498;2024-01-25T09:00:01;89319.81;;;6.60;46.13
83116;BME280;72996;40.206;44.498;2024-01-25T09:02:27;89297.53;;;6.33;45.04
83116;BME280;72996;40.206;44.498;2024-01-25T09:04:55;89295.34;;;6.24;45.68
83116;BME280;72996;40.206;44.498;2024-01-25T09:07:21;89297.19;;;6.36;45.36
83116;BME280;72996;40.206;44.498;2024-01-25T09:09:48;89288.97;;;6.53;45.80
83116;BME280;72996;40.206;44.498;2024-01-25T09:12:14;89293.69;;;6.75;45.39
83116;BME280;72996;40.206;44.498;2024-01-25T09:14:41;89285.88;;;6.62;44.69
83116;BME280;72996;40.206;44.498;2024-01-25T09:17:08;89275.31;;;6.54;45.46
83116;BME280;72996;40.206;44.498;2024-01-25T09:19:34;89282.69;;;6.56;44.58
83116;BME280;72996;40.206;44.498;2024-01-25T09:22:00;89271.53;;;6.22;44.81
83116;BME280;72996;40.206;44.498;2024-01-25T09:24:32;89274.19;;;6.09;44.56
83116;BME280;72996;40.206;44.498;2024-01-25T09:27:01;89279.50;;;5.96;45.30
83116;BME280;72996;40.206;44.498;2024-01-25T09:29:28;89279.56;;;6.03;45.30
83116;BME280;72996;40.206;44.498;2024-01-25T09:31:54;89269.34;;;6.13;46.02
83116;BME280;72996;40.206;44.498;2024-01-25T09:34:20;89261.88;;;6.17;45.10
83116;BME280;72996;40.206;44.498;2024-01-25T09:36:46;89257.88;;;6.03;45.23
83116;BME280;72996;40.206;44.498;2024-01-25T09:39:12;89266.31;;;6.09;45.10
83116;BME280;72996;40.206;44.498;2024-01-25T09:41:40;89268.84;;;6.14;45.97
83116;BME280;72996;40.206;44.498;2024-01-25T09:44:08;89249.81;;;6.01;45.62
83116;BME280;72996;40.206;44.498;2024-01-25T09:46:34;89240.44;;;6.26;45.48
83116;BME280;72996;40.206;44.498;2024-01-25T09:49:01;89248.78;;;6.45;45.29
83116;BME280;72996;40.206;44.498;2024-01-25T09:51:30;89236.06;;;6.49;44.88
83116;BME280;72996;40.206;44.498;2024-01-25T09:54:03;89233.88;;;6.81;45.23
83116;BME280;72996;40.206;44.498;2024-01-25T09:56:31;89235.03;;;7.00;43.45
83116;BME280;72996;40.206;44.498;2024-01-25T09:58:58;89244.53;;;7.11;42.72
83116;BME280;72996;40.206;44.498;2024-01-25T10:01:24;89242.94;;;7.36;43.88
83116;BME280;72996;40.206;44.498;2024-01-25T10:03:50;89241.44;;;7.20;43.16
83116;BME280;72996;40.206;44.498;2024-01-25T10:06:16;89234.31;;;7.00;43.40
83116;BME280;72996;40.206;44.498;2024-01-25T10:08:42;89239.47;;;6.85;43.94
83116;BME280;72996;40.206;44.498;2024-01-25T10:11:08;89233.69;;;7.07;43.71
83116;BME280;72996;40.206;44.498;2024-01-25T10:13:49;89228.22;;;7.05;41.89
83116;BME280;72996;40.206;44.498;2024-01-25T10:16:17;89216.38;;;6.91;43.48
83116;BME280;72996;40.206;44.498;2024-01-25T10:18:46;89213.97;;;6.93;43.05
83116;BME280;72996;40.206;44.498;2024-01-25T10:21:13;89221.47;;;7.17;43.59
83116;BME280;72996;40.206;44.498;2024-01-25T10:23:39;89211.44;;;7.51;43.38
83116;BME280;72996;40.206;44.498;2024-01-25T10:26:08;89204.06;;;7.49;41.50
83116;BME280;72996;40.206;44.498;2024-01-25T10:28:34;89210.34;;;7.39;42.06
83116;BME280;72996;40.206;44.498;2024-01-25T10:31:01;89202.75;;;7.71;43.62
83116;BME280;72996;40.206;44.498;2024-01-25T10:33:29;89203.44;;;8.52;41.50
83116;BME280;72996;40.206;44.498;2024-01-25T10:35:55;89205.03;;;8.47;39.99
83116;BME280;72996;40.206;44.498;2024-01-25T10:38:31;89202.56;;;8.49;41.80
83116;BME280;72996;40.206;44.498;2024-01-25T10:40:59;89137.25;;;8.40;40.88
83116;BME280;72996;40.206;44.498;2024-01-25T10:43:25;89196.41;;;8.77;41.67
83116;BME280;72996;40.206;44.498;2024-01-25T10:45:51;89196.56;;;8.41;40.99
83116;BME280;72996;40.206;44.498;2024-01-25T11:10:20;89112.09;;;6.71;42.52
83116;BME280;72996;40.206;44.498;2024-01-25T11:12:51;89162.81;;;6.94;43.12
83116;BME280;72996;40.206;44.498;2024-01-25T11:15:37;89167.63;;;6.75;43.23
83116;BME280;72996;40.206;44.498;2024-01-25T11:18:07;89175.34;;;6.80;43.35
83116;BME280;72996;40.206;44.498;2024-01-25T11:20:34;89178.97;;;6.42;44.10
83116;BME280;72996;40.206;44.498;2024-01-25T11:23:05;89149.59;;;6.23;43.86
83116;BME280;72996;40.206;44.498;2024-01-25T11:25:38;89165.78;;;6.34;44.06
83116;BME280;72996;40.206;44.498;2024-01-25T11:28:05;89131.56;;;5.99;44.01
83116;BME280;72996;40.206;44.498;2024-01-25T11:30:34;89151.03;;;6.03;44.36
83116;BME280;72996;40.206;44.498;2024-01-25T11:33:00;89140.00;;;5.84;44.63
83116;BME280;72996;40.206;44.498;2024-01-25T11:35:26;89132.66;;;5.83;44.24
83116;BME280;72996;40.206;44.498;2024-01-25T11:37:52;89122.09;;;5.96;43.93
83116;BME280;72996;40.206;44.498;2024-01-25T11:40:18;89158.97;;;6.39;44.07
83116;BME280;72996;40.206;44.498;2024-01-25T11:42:48;89155.50;;;6.44;43.84
83116;BME280;72996;40.206;44.498;2024-01-25T11:45:14;89151.47;;;6.43;43.47
83116;BME280;72996;40.206;44.498;2024-01-25T11:47:41;89144.56;;;6.25;43.24
83116;BME280;72996;40.206;44.498;2024-01-25T11:50:10;89150.69;;;6.27;43.54
83116;BME280;72996;40.206;44.498;2024-01-25T11:52:36;89154.38;;;6.32;43.86
83116;BME280;72996;40.206;44.498;2024-01-25T11:55:07;89154.16;;;6.02;43.86
83116;BME280;72996;40.206;44.498;2024-01-25T11:57:39;89141.56;;;5.80;44.13
83116;BME280;72996;40.206;44.498;2024-01-25T12:00:13;89133.00;;;6.00;43.81
83116;BME280;72996;40.206;44.498;2024-01-25T12:02:40;89158.97;;;6.39;44.08
83116;BME280;72996;40.206;44.498;2024-01-25T12:05:08;89138.81;;;6.06;44.00
83116;BME280;72996;40.206;44.498;2024-01-25T12:07:34;89161.50;;;6.03;43.97
83116;BME280;72996;40.206;44.498;2024-01-25T12:10:15;89160.13;;;6.02;44.17
83116;BME280;72996;40.206;44.498;2024-01-25T12:12:41;89149.16;;;5.91;44.32
83116;BME280;72996;40.206;44.498;2024-01-25T12:15:07;89156.22;;;5.96;44.87
83116;BME280;72996;40.206;44.498;2024-01-25T12:17:34;89157.47;;;5.82;44.49
83116;BME280;72996;40.206;44.498;2024-01-25T12:20:04;89156.41;;;5.64;45.47
83116;BME280;72996;40.206;44.498;2024-01-25T12:22:36;89156.97;;;5.50;45.68
83116;BME280;72996;40.206;44.498;2024-01-25T12:25:02;89164.03;;;5.42;44.87
83116;BME280;72996;40.206;44.498;2024-01-25T12:27:31;89157.41;;;5.41;45.90
83116;BME280;72996;40.206;44.498;2024-01-25T12:29:57;89131.03;;;5.26;45.72
83116;BME280;72996;40.206;44.498;2024-01-25T12:32:23;89155.56;;;5.49;46.00
83116;BME280;72996;40.206;44.498;2024-01-25T12:34:53;89157.31;;;5.33;45.36
83116;BME280;72996;40.206;44.498;2024-01-25T12:37:19;89172.34;;;5.33;46.79
83116;BME280;72996;40.206;44.498;2024-01-25T12:39:45;89166.09;;;5.36;46.38
83116;BME280;72996;40.206;44.498;2024-01-25T12:42:10;89164.03;;;5.42;46.22
83116;BME280;72996;40.206;44.498;2024-01-25T12:44:36;89136.69;;;5.17;45.95
83116;BME280;72996;40.206;44.498;2024-01-25T12:47:02;89167.13;;;5.33;46.28
83116;BME280;72996;40.206;44.498;2024-01-25T12:49:32;89147.31;;;5.11;47.00
83116;BME280;72996;40.206;44.498;2024-01-25T12:51:57;89174.75;;;5.31;46.01
83116;BME280;72996;40.206;44.498;2024-01-25T12:54:23;89134.31;;;5.06;45.36
83116;BME280;72996;40.206;44.498;2024-01-25T12:56:49;89144.19;;;5.13;46.14
83116;BME280;72996;40.206;44.498;2024-01-25T12:59:15;89146.41;;;4.96;46.28
83116;BME280;72996;40.206;44.498;2024-01-25T13:01:41;89152.06;;;5.00;46.94
83116;BME280;72996;40.206;44.498;2024-01-25T13:04:06;89142.69;;;4.91;46.02
83116;BME280;72996;40.206;44.498;2024-01-25T13:06:32;89133.34;;;4.83;46.08
83116;BME280;72996;40.206;44.498;2024-01-25T13:08:58;89132.94;;;4.79;46.78
83116;BME280;72996;40.206;44.498;2024-01-25T13:11:23;89110.81;;;4.67;47.00
83116;BME280;72996;40.206;44.498;2024-01-25T13:13:49;89117.47;;;4.68;47.18
83116;BME280;72996;40.206;44.498;2024-01-25T13:16:16;89118.56;;;4.72;47.33
83116;BME280;72996;40.206;44.498;2024-01-25T13:18:42;89139.78;;;4.95;47.19